Rochester, MN

7:14 PM CDT on March 30, 2015 (GMT -0500)
Honeckland, Elton Hills | | Change Station
CLOSE
Current Station
Personal Weather Station
Location: Rochester, MN
Elevation: 1037 ft
Nearby Weather Stations

Elev 1037 ft 44.05 °N, 92.48 °W | Updated 7 minutes ago

Mostly Cloudy
Mostly Cloudy
58.3 °F
Feels Like 58.3 °F
N
2.7
Wind Variable Wind from NNE

Today
High -- | Low -- °F
--% Chance of Precip.
Yesterday
High -- | Low -- °F
Precip. -- in
6:55 AM 7:34 PM
Waxing Gibbous, 83% visible
Pressure 29.76 in
Visibility 10.0 miles
Clouds Mostly Cloudy 11000 ft
Dew Point 39 °F
Humidity 49%
Rainfall 0.00 in
Snow Depth Not available.
UV 0 out of 12
Pollen 8.00 out of 12
Air Quality Not available.
Flu Activity Not available.
METAR K9MN 302354Z AUTO 12006KT 10SM BKN110 14/03 A2976 RMK AO1 T01420025 10150 20111

More Conditions Fewer Conditions

Pressure 29.76 in
Visibility 10.0 miles
Clouds Mostly Cloudy 11000 ft
Dew Point 39 °F
Humidity 49%
Rainfall 0.00 in
Snow Depth Not available.
UV 0 out of 12
Pollen 8.00 out of 12
Air Quality Not available.
Flu Activity Not available.
METAR K9MN 302354Z AUTO 12006KT 10SM BKN110 14/03 A2976 RMK AO1 T01420025 10150 20111

More Conditions Fewer Conditions

10-Day Weather Forecast

Almanac

Astronomy

Mar. 30, 2015 Rise Set
Actual Time
Civil Twilight
Nautical Twilight
Astronomical Twilight
Moon
Length of Visible Light
Length of Day
Tomorrow will be .
, % of the Moon is Illuminated

Today's Extremes

State Highs State Lows

Community

WunderPhotos

Upload Photos

1,809,622 photos uploaded!

WunderBlogs® & News

Nearby

Air Quality

  Air Quality AQ Index Pollutant
Not available.

Snow Depth

Station Depth Elevation

Earthquake Activity

City Distance Mag. Time & Date
Minimum magnitude displayed is 2.5.

Coastal Water Temperatures

Place Temperature

Stations

Nearby Weather Stations

Station Location Temp. Windchill Dew Point Humidity Wind Precip. Elev Updated Type